Time;durP1;ratioP1;P1;durP2;ratioP2;P2;SDS_P1;SDS_P2;PMS_P1;PMS_P2;Temp;Humidity;BMP_temperature;BMP_pressure;BME280_temperature;BME280_humidity;BME280_pressure;Samples;Min_cycle;Max_cycle;Signal;HPM_P1;HPM_P2
2021/12/14 00:01:34;;;;;;;163.82;64.88;;;5.40;98.70;;;;;;5073096;28;20446;-80
2021/12/14 00:04:17;;;;;;;177.20;68.05;;;5.40;99.00;;;;;;5074213;28;20496;-80
2021/12/14 00:07:01;;;;;;;163.80;65.97;;;5.40;99.20;;;;;;5074227;28;20028;-80
2021/12/14 00:09:32;;;;;;;193.38;68.13;;;5.30;99.30;;;;;;5074245;28;20047;-80
2021/12/14 00:15:03;;;;;;;184.93;68.80;;;5.30;99.60;;;;;;5073074;28;20474;-80
2021/12/14 00:17:37;;;;;;;200.95;71.68;;;5.30;99.90;;;;;;5073550;28;20044;-79
2021/12/14 00:20:35;;;;;;;180.50;68.55;;;5.30;99.90;;;;;;5073856;28;20021;-80
2021/12/14 00:25:44;;;;;;;182.25;67.28;;;5.30;99.90;;;;;;5074511;28;20477;-81
2021/12/14 00:28:25;;;;;;;192.20;65.35;;;5.30;99.90;;;;;;5072549;28;20032;-80
2021/12/14 00:30:54;;;;;;;177.35;66.22;;;5.30;99.90;;;;;;5074088;28;20097;-79
2021/12/14 00:33:23;;;;;;;172.52;61.97;;;5.30;99.90;;;;;;5072414;28;20040;-80
2021/12/14 00:35:58;;;;;;;157.43;61.92;;;5.40;99.90;;;;;;5056190;28;20027;-81
2021/12/14 00:38:25;;;;;;;148.18;58.80;;;5.40;99.90;;;;;;5073831;28;20025;-80
2021/12/14 00:41:05;;;;;;;165.75;61.50;;;5.40;99.90;;;;;;5072037;28;20064;-80
2021/12/14 00:43:32;;;;;;;183.73;65.85;;;5.40;99.90;;;;;;5072899;28;20043;-81
2021/12/14 00:46:00;;;;;;;176.93;63.47;;;5.40;99.90;;;;;;5073473;28;20500;-81
2021/12/14 00:48:26;;;;;;;155.07;62.17;;;5.40;99.90;;;;;;5072177;28;20036;-80
2021/12/14 00:51:03;;;;;;;169.38;60.95;;;5.40;99.90;;;;;;5072148;28;20017;-80
2021/12/14 00:53:30;;;;;;;184.73;60.55;;;5.40;99.90;;;;;;5075776;28;20031;-80
2021/12/14 00:55:59;;;;;;;170.68;58.80;;;5.40;99.90;;;;;;5057925;28;20028;-80
2021/12/14 00:58:27;;;;;;;200.77;65.93;;;5.30;99.90;;;;;;5056322;28;20390;-80
2021/12/14 01:01:09;;;;;;;187.88;64.30;;;5.30;99.90;;;;;;5073730;28;20035;-81
2021/12/14 01:03:38;;;;;;;184.70;61.50;;;5.40;99.90;;;;;;5092221;28;20167;-79
2021/12/14 01:06:11;;;;;;;186.82;63.78;;;5.30;99.90;;;;;;5092254;28;20032;-80
2021/12/14 01:08:42;;;;;;;182.35;62.00;;;5.40;99.90;;;;;;5078917;28;20090;-80
2021/12/14 01:11:42;;;;;;;171.10;61.70;;;5.40;99.90;;;;;;5072684;28;20024;-80
2021/12/14 01:14:16;;;;;;;199.70;63.80;;;5.30;99.90;;;;;;5072587;28;20020;-80
2021/12/14 01:16:55;;;;;;;164.20;58.60;;;5.40;99.90;;;;;;5073288;28;20013;-79
2021/12/14 01:19:36;;;;;;;180.18;65.22;;;5.40;99.90;;;;;;5078317;28;20493;-80
2021/12/14 01:22:30;;;;;;;196.45;70.32;;;5.40;99.90;;;;;;5093833;28;20020;-79
2021/12/14 01:25:34;;;;;;;180.57;64.43;;;5.30;99.90;;;;;;5095943;28;20028;-80
2021/12/14 01:28:15;;;;;;;180.65;62.42;;;5.30;99.90;;;;;;5096235;28;20024;-80
2021/12/14 01:34:10;;;;;;;187.00;62.70;;;5.30;99.90;;;;;;5070700;28;20024;-79
2021/12/14 01:36:44;;;;;;;183.50;64.25;;;5.30;99.90;;;;;;5092716;28;20017;-81
2021/12/14 01:39:48;;;;;;;197.65;63.70;;;5.30;99.90;;;;;;5078606;28;20103;-80
2021/12/14 01:42:26;;;;;;;188.70;62.00;;;5.40;99.90;;;;;;5097512;28;20074;-80
2021/12/14 01:45:17;;;;;;;189.45;62.95;;;5.30;99.90;;;;;;5099076;28;20043;-80
2021/12/14 01:47:47;;;;;;;163.10;59.05;;;5.40;99.90;;;;;;5098887;28;20500;-80
2021/12/14 01:50:35;;;;;;;166.40;60.38;;;5.30;99.90;;;;;;5097758;28;20019;-80
2021/12/14 01:53:03;;;;;;;208.80;67.63;;;5.40;99.90;;;;;;5099941;28;20012;-79
2021/12/14 01:55:53;;;;;;;188.02;63.38;;;5.30;99.90;;;;;;5099681;28;20035;-79
2021/12/14 01:58:22;;;;;;;209.02;65.45;;;5.30;99.90;;;;;;5101122;28;20099;-81
2021/12/14 02:00:58;;;;;;;192.70;62.95;;;5.30;99.90;;;;;;5099791;28;20032;-80
2021/12/14 02:03:42;;;;;;;174.52;62.78;;;5.30;99.90;;;;;;5097940;28;20017;-80
2021/12/14 02:06:13;;;;;;;175.65;60.72;;;5.30;99.90;;;;;;5097199;28;20028;-80
2021/12/14 02:08:40;;;;;;;174.18;59.60;;;5.30;99.90;;;;;;5080357;28;20031;-81
2021/12/14 02:11:09;;;;;;;187.27;61.42;;;5.30;99.90;;;;;;5096388;28;20085;-81
2021/12/14 02:13:40;;;;;;;193.95;63.05;;;5.30;99.90;;;;;;5079044;28;20035;-76
2021/12/14 02:16:08;;;;;;;194.25;62.90;;;5.30;99.90;;;;;;5095413;28;20035;-77
2021/12/14 02:18:36;;;;;;;186.60;60.10;;;5.30;99.90;;;;;;5096036;28;20089;-77
2021/12/14 02:21:11;;;;;;;188.13;60.78;;;5.30;99.90;;;;;;5074834;28;20090;-76
2021/12/14 02:23:40;;;;;;;196.70;64.40;;;5.30;99.90;;;;;;5074532;28;20058;-76
2021/12/14 02:26:11;;;;;;;180.05;61.00;;;5.30;99.90;;;;;;5096721;28;20116;-76
2021/12/14 02:28:38;;;;;;;175.43;61.92;;;5.30;99.90;;;;;;5096355;28;20458;-76
2021/12/14 02:31:09;;;;;;;192.38;59.72;;;5.20;99.90;;;;;;5094991;28;20103;-76
2021/12/14 02:33:39;;;;;;;166.70;56.80;;;5.30;99.90;;;;;;5061870;28;20035;-76
2021/12/14 02:36:09;;;;;;;186.48;61.97;;;5.30;99.90;;;;;;5078523;28;20362;-76
2021/12/14 02:38:52;;;;;;;206.15;61.97;;;5.30;99.90;;;;;;5061535;28;20028;-76
2021/12/14 02:41:21;;;;;;;171.00;57.60;;;5.30;99.90;;;;;;5095954;28;20024;-76
2021/12/14 02:43:55;;;;;;;185.80;59.33;;;5.20;99.90;;;;;;5094891;28;20024;-77
2021/12/14 02:46:41;;;;;;;161.07;56.65;;;5.20;99.90;;;;;;5095758;28;20079;-76
2021/12/14 02:49:10;;;;;;;177.60;61.03;;;5.20;99.90;;;;;;5095140;28;20366;-76
2021/12/14 02:51:58;;;;;;;164.98;55.83;;;5.20;99.90;;;;;;5093558;28;20024;-76
2021/12/14 02:54:46;;;;;;;180.77;57.15;;;5.20;99.90;;;;;;5094564;28;20046;-77
2021/12/14 02:57:25;;;;;;;160.98;55.40;;;5.20;99.90;;;;;;5094388;28;20031;-76
2021/12/14 02:59:54;;;;;;;173.50;56.20;;;5.20;99.90;;;;;;5077535;28;20042;-77
2021/12/14 03:02:34;;;;;;;198.38;70.32;;;5.10;99.90;;;;;;5096065;28;20031;-76
2021/12/14 03:05:32;;;;;;;196.27;64.43;;;5.10;99.90;;;;;;5094566;28;20438;-77
2021/12/14 03:08:27;;;;;;;184.27;61.63;;;5.10;99.90;;;;;;5077253;28;20023;-76
2021/12/14 03:11:09;;;;;;;204.32;65.22;;;5.00;99.90;;;;;;5075642;28;20024;-76
2021/12/14 03:13:36;;;;;;;209.25;68.93;;;4.90;99.90;;;;;;5059453;28;20055;-76
2021/12/14 03:16:08;;;;;;;227.38;66.82;;;5.00;99.90;;;;;;5073751;28;20090;-77
2021/12/14 03:18:38;;;;;;;176.05;63.10;;;5.00;99.90;;;;;;5074196;28;20035;-75
2021/12/14 03:21:11;;;;;;;175.82;62.47;;;5.00;99.90;;;;;;5074051;28;20036;-76
2021/12/14 03:23:47;;;;;;;189.23;64.03;;;5.00;99.90;;;;;;5075184;28;20028;-76
2021/12/14 03:26:17;;;;;;;169.73;60.13;;;5.00;99.90;;;;;;5074982;28;20032;-77
2021/12/14 03:28:48;;;;;;;195.80;64.85;;;5.00;99.90;;;;;;5075068;28;20016;-76
2021/12/14 03:31:22;;;;;;;169.20;60.83;;;5.00;99.90;;;;;;5057101;28;20123;-76
2021/12/14 03:34:26;;;;;;;181.88;63.88;;;5.00;99.90;;;;;;5073737;28;20074;-76
2021/12/14 03:37:06;;;;;;;164.70;58.13;;;5.00;99.90;;;;;;5073033;28;20102;-76
2021/12/14 03:39:57;;;;;;;160.43;58.03;;;5.00;99.90;;;;;;5074942;28;20118;-77
2021/12/14 03:42:35;;;;;;;183.18;64.32;;;5.00;99.90;;;;;;5057812;28;20032;-77
2021/12/14 03:45:04;;;;;;;160.80;58.90;;;4.90;99.90;;;;;;5057901;28;20032;-78
2021/12/14 03:47:40;;;;;;;172.43;62.17;;;4.90;99.90;;;;;;5073352;28;20446;-76
2021/12/14 03:50:12;;;;;;;145.60;58.15;;;4.90;99.90;;;;;;5074707;28;20117;-77
2021/12/14 03:52:40;;;;;;;146.00;58.78;;;4.90;99.90;;;;;;5073257;28;20078;-76
2021/12/14 03:55:23;;;;;;;133.50;54.60;;;4.90;99.90;;;;;;5073117;28;20013;-77
2021/12/14 03:57:51;;;;;;;135.60;52.67;;;4.90;99.90;;;;;;5073040;28;20025;-77
2021/12/14 04:00:27;;;;;;;152.07;54.53;;;4.80;99.90;;;;;;5056534;28;20059;-76
2021/12/14 04:02:56;;;;;;;147.88;56.50;;;4.80;99.90;;;;;;5072732;28;20074;-76
2021/12/14 04:05:24;;;;;;;139.68;53.83;;;4.80;99.90;;;;;;5056465;28;20173;-75
2021/12/14 04:07:51;;;;;;;167.38;59.55;;;4.80;99.90;;;;;;5072761;28;20019;-75
2021/12/14 04:10:24;;;;;;;149.27;55.85;;;4.80;99.90;;;;;;5073021;28;20044;-76
2021/12/14 04:12:52;;;;;;;141.07;54.28;;;4.80;99.90;;;;;;5056818;28;20033;-76
2021/12/14 04:15:23;;;;;;;138.27;54.90;;;4.80;99.90;;;;;;5039453;28;20028;-76
2021/12/14 04:17:49;;;;;;;136.18;55.72;;;4.90;99.90;;;;;;5073953;28;20108;-76
2021/12/14 04:20:37;;;;;;;153.82;55.05;;;4.90;99.90;;;;;;5072433;28;20025;-76
2021/12/14 04:23:19;;;;;;;151.05;56.22;;;4.90;99.90;;;;;;5071818;28;20037;-76
2021/12/14 04:25:48;;;;;;;135.63;54.75;;;4.90;99.90;;;;;;5073439;28;20098;-77
2021/12/14 04:28:32;;;;;;;150.63;54.67;;;4.90;99.90;;;;;;5072305;28;20036;-77
2021/12/14 04:30:58;;;;;;;149.63;56.22;;;4.90;99.90;;;;;;5073846;28;20469;-77
2021/12/14 04:33:38;;;;;;;161.15;57.70;;;4.90;99.90;;;;;;5073698;28;20513;-76
2021/12/14 04:36:16;;;;;;;168.85;58.10;;;4.90;99.90;;;;;;5055720;28;20028;-76
2021/12/14 04:38:52;;;;;;;137.73;53.83;;;4.90;99.90;;;;;;5073723;28;20097;-76
2021/12/14 04:52:55;;;;;;;148.00;53.13;;;4.90;99.90;;;;;;5073869;28;20492;-77
2021/12/14 04:55:21;;;;;;;141.55;53.08;;;4.80;99.90;;;;;;5073384;28;20024;-77
2021/12/14 04:57:50;;;;;;;156.75;57.10;;;4.70;99.90;;;;;;5073335;28;20500;-76
2021/12/14 05:00:26;;;;;;;145.60;55.45;;;4.70;99.90;;;;;;5072011;28;20016;-76
2021/12/14 05:02:54;;;;;;;175.55;55.35;;;4.70;99.90;;;;;;5072016;28;20028;-76
2021/12/14 05:05:28;;;;;;;134.90;50.33;;;4.80;99.90;;;;;;5073510;28;20091;-75
2021/12/14 05:10:46;;;;;;;125.80;49.78;;;4.80;99.90;;;;;;5072125;28;20051;-75
2021/12/14 05:13:26;;;;;;;131.35;48.03;;;4.90;99.90;;;;;;5055339;28;20032;-75
2021/12/14 05:15:52;;;;;;;136.57;50.55;;;4.90;99.90;;;;;;5073292;28;20036;-75
2021/12/14 05:18:20;;;;;;;142.00;52.22;;;4.90;99.90;;;;;;5071893;28;20021;-75
2021/12/14 05:20:49;;;;;;;145.77;53.90;;;4.90;99.90;;;;;;5071777;28;20024;-76
2021/12/14 05:23:23;;;;;;;137.10;53.80;;;5.00;99.90;;;;;;5055893;28;20033;-77
2021/12/14 05:25:51;;;;;;;139.85;53.05;;;5.00;99.90;;;;;;5071852;28;20028;-77
2021/12/14 05:28:19;;;;;;;151.75;55.47;;;5.00;99.90;;;;;;5055173;28;20389;-77
2021/12/14 05:30:51;;;;;;;125.68;50.13;;;5.00;99.90;;;;;;5055390;28;20017;-77
2021/12/14 05:33:34;;;;;;;139.75;53.90;;;5.00;99.90;;;;;;5072715;28;20021;-77
2021/12/14 05:36:05;;;;;;;157.90;58.65;;;5.00;99.90;;;;;;5071417;28;20024;-76
2021/12/14 05:44:23;;;;;;;137.50;52.58;;;5.00;99.90;;;;;;5073505;28;20089;-78
2021/12/14 05:46:53;;;;;;;134.88;49.35;;;5.00;99.90;;;;;;5072496;28;20049;-77
2021/12/14 05:49:23;;;;;;;131.98;49.28;;;5.00;99.90;;;;;;5071823;28;20028;-77
2021/12/14 05:51:52;;;;;;;107.25;45.60;;;5.00;99.90;;;;;;5072927;28;20483;-77
2021/12/14 05:54:29;;;;;;;131.63;47.05;;;5.00;99.90;;;;;;5038174;28;20044;-76
2021/12/14 05:56:57;;;;;;;144.27;50.55;;;5.00;99.90;;;;;;5071352;28;20028;-77
2021/12/14 05:59:40;;;;;;;135.63;50.05;;;4.90;99.90;;;;;;5054663;28;20028;-76
2021/12/14 06:02:08;;;;;;;133.32;49.58;;;5.00;99.90;;;;;;5071183;28;20032;-76
2021/12/14 06:04:40;;;;;;;134.00;51.33;;;4.90;99.90;;;;;;5068331;28;20033;-74
2021/12/14 06:07:08;;;;;;;136.40;52.13;;;4.90;99.90;;;;;;5071694;28;20037;-74
2021/12/14 06:09:39;;;;;;;147.82;55.03;;;4.90;99.90;;;;;;5071062;28;20104;-74
2021/12/14 06:12:12;;;;;;;143.23;53.90;;;4.90;99.90;;;;;;5071126;28;20039;-74
2021/12/14 06:14:44;;;;;;;136.82;51.08;;;5.00;99.90;;;;;;5070950;28;20020;-74
2021/12/14 06:17:11;;;;;;;149.10;54.75;;;4.90;99.90;;;;;;5071234;28;20106;-73
2021/12/14 06:19:42;;;;;;;142.38;52.35;;;4.90;99.90;;;;;;5072473;28;20480;-73
2021/12/14 06:22:31;;;;;;;176.57;58.67;;;4.90;99.90;;;;;;5070882;28;20024;-75
2021/12/14 06:25:04;;;;;;;143.95;51.42;;;4.90;99.90;;;;;;5071638;28;20012;-73
2021/12/14 06:27:38;;;;;;;143.88;52.88;;;4.90;99.90;;;;;;5058248;28;20068;-74
2021/12/14 06:30:06;;;;;;;131.25;51.67;;;5.00;99.90;;;;;;5074003;28;20024;-73
2021/12/14 06:32:39;;;;;;;137.57;51.13;;;5.00;99.90;;;;;;5075464;28;20029;-73
2021/12/14 06:35:35;;;;;;;168.00;56.35;;;5.00;99.90;;;;;;5074744;28;20025;-74
2021/12/14 06:40:46;;;;;;;137.65;49.72;;;5.10;99.90;;;;;;5075758;28;20032;-72
2021/12/14 06:43:25;;;;;;;150.48;53.08;;;5.10;99.90;;;;;;5074643;28;20036;-75
2021/12/14 06:45:57;;;;;;;160.90;55.78;;;5.10;99.90;;;;;;5074878;28;20381;-75
2021/12/14 06:48:30;;;;;;;175.30;58.10;;;5.20;99.90;;;;;;5056753;28;20033;-76
2021/12/14 06:51:15;;;;;;;165.30;51.08;;;5.20;99.90;;;;;;5072828;28;20043;-76
2021/12/14 06:53:48;;;;;;;195.43;54.60;;;5.30;99.90;;;;;;5074195;28;20028;-74
2021/12/14 06:56:17;;;;;;;186.98;57.63;;;5.30;99.90;;;;;;5073273;28;20029;-75
2021/12/14 06:58:54;;;;;;;169.77;56.50;;;5.30;99.90;;;;;;5072628;28;20031;-75
2021/12/14 07:01:25;;;;;;;160.20;55.35;;;5.30;99.90;;;;;;5072747;28;20115;-75
2021/12/14 07:04:27;;;;;;;167.57;55.83;;;5.30;99.90;;;;;;5055790;28;20056;-75
2021/12/14 07:07:11;;;;;;;188.25;54.95;;;5.30;99.90;;;;;;5042026;28;20033;-76
2021/12/14 07:09:41;;;;;;;180.30;56.63;;;5.30;99.90;;;;;;5073845;28;20028;-75
2021/12/14 07:12:19;;;;;;;162.38;56.17;;;5.30;99.90;;;;;;5074078;28;20115;-76
2021/12/14 07:15:10;;;;;;;166.50;60.78;;;5.40;99.90;;;;;;5072377;28;20575;-75
2021/12/14 07:17:43;;;;;;;173.65;57.30;;;5.40;99.90;;;;;;5074188;28;20020;-75
2021/12/14 07:20:25;;;;;;;167.00;55.70;;;5.40;99.90;;;;;;5073504;28;20052;-75
2021/12/14 07:22:55;;;;;;;233.65;64.38;;;5.30;99.90;;;;;;5074816;28;20392;-75
2021/12/14 07:25:32;;;;;;;182.70;59.33;;;5.30;99.90;;;;;;5074906;28;20024;-76
2021/12/14 07:28:13;;;;;;;208.57;63.00;;;5.30;99.90;;;;;;5071714;28;20116;-76
2021/12/14 07:30:43;;;;;;;183.27;58.63;;;5.30;99.90;;;;;;5077496;28;20432;-79
2021/12/14 07:33:21;;;;;;;179.55;61.40;;;5.30;99.90;;;;;;5095950;28;20055;-78
2021/12/14 07:35:59;;;;;;;169.82;56.30;;;5.40;99.90;;;;;;5075646;28;20024;-78
2021/12/14 07:38:56;;;;;;;153.35;53.00;;;5.40;99.90;;;;;;5073920;28;20037;-74
2021/12/14 07:41:24;;;;;;;161.95;52.00;;;5.50;99.90;;;;;;5074836;28;20134;-73
2021/12/14 07:43:55;;;;;;;138.70;50.25;;;5.40;99.90;;;;;;5077443;28;20033;-74
2021/12/14 07:46:26;;;;;;;142.35;47.95;;;5.40;99.90;;;;;;5087929;28;20044;-74
2021/12/14 07:49:03;;;;;;;140.57;49.58;;;5.40;99.90;;;;;;5094441;28;20493;-74
2021/12/14 07:51:32;;;;;;;145.48;49.13;;;5.50;99.90;;;;;;5094593;28;20063;-74
2021/12/14 07:54:06;;;;;;;137.55;47.65;;;5.50;99.90;;;;;;5094577;28;20040;-75
2021/12/14 07:56:37;;;;;;;145.30;50.78;;;5.50;99.90;;;;;;5076504;28;20047;-78
2021/12/14 07:59:29;;;;;;;149.95;50.85;;;5.50;99.90;;;;;;5074451;28;20024;-74
2021/12/14 08:02:18;;;;;;;146.80;48.22;;;5.50;99.90;;;;;;5087896;28;20372;-77
2021/12/14 08:04:57;;;;;;;136.20;50.80;;;5.50;99.90;;;;;;5092866;28;20106;-76
2021/12/14 08:07:30;;;;;;;157.68;49.88;;;5.50;99.90;;;;;;5089387;28;20024;-78
2021/12/14 08:10:16;;;;;;;170.07;53.45;;;5.50;99.90;;;;;;5085152;28;20024;-77
2021/12/14 08:12:52;;;;;;;141.88;50.55;;;5.50;99.90;;;;;;5091986;28;20110;-79
2021/12/14 08:15:33;;;;;;;139.00;50.88;;;5.50;99.90;;;;;;5072305;28;20173;-78
2021/12/14 08:18:13;;;;;;;144.30;49.50;;;5.50;99.90;;;;;;5073439;28;20042;-77
2021/12/14 08:20:52;;;;;;;179.40;55.58;;;5.50;99.90;;;;;;5073724;28;20040;-76
2021/12/14 08:23:25;;;;;;;155.25;53.30;;;5.50;99.90;;;;;;5073877;28;20020;-75
2021/12/14 08:25:55;;;;;;;146.80;51.30;;;5.50;99.90;;;;;;5071961;28;20362;-77
2021/12/14 08:28:21;;;;;;;155.98;54.97;;;5.50;99.90;;;;;;5072982;28;20104;-75
2021/12/14 08:31:02;;;;;;;128.88;47.80;;;5.50;99.90;;;;;;5087059;28;20024;-76
2021/12/14 08:33:30;;;;;;;131.13;49.90;;;5.50;99.90;;;;;;5102118;28;20012;-75
2021/12/14 08:36:04;;;;;;;125.00;47.88;;;5.60;99.90;;;;;;5105456;28;20273;-76
2021/12/14 08:38:33;;;;;;;131.25;47.72;;;5.60;99.90;;;;;;5084936;28;20020;-78
2021/12/14 08:41:11;;;;;;;128.77;48.00;;;5.60;99.90;;;;;;5071103;28;20095;-78
2021/12/14 08:43:46;;;;;;;151.70;51.58;;;5.70;99.90;;;;;;5073144;28;20028;-77
2021/12/14 08:46:16;;;;;;;145.70;51.10;;;5.70;99.90;;;;;;5073120;28;20123;-74
2021/12/14 08:48:46;;;;;;;125.45;48.40;;;5.80;99.90;;;;;;5072275;28;20032;-75
2021/12/14 08:51:22;;;;;;;133.18;50.50;;;5.80;99.90;;;;;;5108920;28;20038;-74
2021/12/14 08:53:49;;;;;;;147.80;52.83;;;5.80;99.90;;;;;;5114589;28;20358;-75
2021/12/14 08:56:17;;;;;;;131.73;49.13;;;5.90;99.90;;;;;;5112479;28;20027;-75
2021/12/14 08:58:43;;;;;;;170.45;58.92;;;5.90;99.90;;;;;;5114436;28;20389;-78
2021/12/14 09:01:15;;;;;;;148.85;53.70;;;5.90;99.90;;;;;;5113351;28;20502;-75
2021/12/14 09:03:51;;;;;;;116.57;46.33;;;6.00;99.90;;;;;;5113587;28;20020;-77
2021/12/14 09:06:19;;;;;;;119.45;47.00;;;6.00;99.90;;;;;;5113456;28;20031;-76
2021/12/14 09:08:47;;;;;;;130.65;48.20;;;6.00;99.90;;;;;;5113839;28;20076;-77
2021/12/14 09:11:16;;;;;;;149.75;51.55;;;5.90;99.90;;;;;;5112202;28;20376;-77
2021/12/14 09:13:42;;;;;;;132.65;49.08;;;5.90;99.90;;;;;;5112133;28;20024;-75
2021/12/14 09:16:13;;;;;;;142.55;51.20;;;5.90;99.90;;;;;;5111798;28;20016;-75
2021/12/14 09:18:46;;;;;;;144.02;54.60;;;5.90;99.90;;;;;;5112112;28;20069;-76
2021/12/14 09:21:19;;;;;;;132.30;53.53;;;5.90;99.90;;;;;;5111665;28;20123;-75
2021/12/14 09:23:50;;;;;;;138.15;51.92;;;5.90;99.90;;;;;;5113007;28;20468;-73
2021/12/14 09:26:22;;;;;;;123.72;48.70;;;5.90;99.90;;;;;;5103131;28;20051;-74
2021/12/14 09:28:49;;;;;;;123.03;50.13;;;5.90;99.90;;;;;;5092151;28;20024;-74
2021/12/14 09:31:19;;;;;;;112.22;46.53;;;5.90;99.90;;;;;;5072958;28;20020;-76
2021/12/14 09:33:47;;;;;;;113.38;47.45;;;5.90;99.90;;;;;;5089526;28;20182;-75
2021/12/14 09:36:14;;;;;;;113.05;45.78;;;6.00;99.90;;;;;;5090837;28;20057;-78
2021/12/14 09:38:43;;;;;;;120.78;47.53;;;6.00;99.90;;;;;;5089471;28;20020;-76
2021/12/14 09:41:15;;;;;;;113.80;50.60;;;6.10;99.90;;;;;;5089411;28;20466;-76
2021/12/14 09:43:42;;;;;;;124.68;49.05;;;6.10;99.90;;;;;;5090842;28;20028;-74
2021/12/14 09:46:09;;;;;;;129.02;48.95;;;6.10;99.90;;;;;;5089460;28;20085;-75
2021/12/14 09:48:40;;;;;;;120.53;49.00;;;6.20;99.90;;;;;;5089642;28;20028;-76
2021/12/14 09:51:11;;;;;;;117.53;48.25;;;6.30;99.90;;;;;;5110099;28;20023;-74
2021/12/14 09:53:45;;;;;;;132.17;55.43;;;6.30;99.80;;;;;;5113413;28;20031;-73
2021/12/14 09:56:16;;;;;;;141.25;57.90;;;6.30;99.30;;;;;;5113690;28;20024;-74
2021/12/14 09:58:45;;;;;;;;;;;6.30;99.40;;;;;;5112224;28;20032;-77
2021/12/14 10:01:32;;;;;;;112.45;46.53;;;6.30;99.30;;;;;;5115722;28;19911;-78
2021/12/14 10:04:03;;;;;;;117.25;49.83;;;6.40;99.10;;;;;;5117343;28;20028;-74
2021/12/14 10:06:32;;;;;;;121.82;48.83;;;6.40;99.00;;;;;;5115548;28;20428;-73
2021/12/14 10:09:04;;;;;;;110.43;44.95;;;6.40;98.80;;;;;;5116795;28;20461;-74
2021/12/14 10:11:48;;;;;;;97.63;43.03;;;6.40;98.70;;;;;;5116750;28;20043;-75
2021/12/14 10:14:20;;;;;;;110.57;46.75;;;6.40;98.90;;;;;;5116843;28;20019;-75
2021/12/14 10:16:46;;;;;;;117.90;47.40;;;6.40;98.90;;;;;;5115679;28;20119;-75
2021/12/14 10:19:17;;;;;;;124.82;47.15;;;6.40;98.60;;;;;;5116584;28;20031;-77
2021/12/14 10:21:48;;;;;;;132.68;47.95;;;6.40;98.80;;;;;;5116510;28;20450;-77
2021/12/14 10:24:14;;;;;;;128.75;47.47;;;6.50;98.50;;;;;;5115537;28;20087;-75
2021/12/14 10:26:45;;;;;;;132.55;49.65;;;6.40;98.50;;;;;;5116319;28;20115;-75
2021/12/14 10:29:11;;;;;;;123.85;49.13;;;6.50;98.50;;;;;;5116439;28;20127;-75
2021/12/14 10:31:45;;;;;;;118.70;48.83;;;6.50;98.40;;;;;;5116385;28;20030;-76
2021/12/14 10:34:35;;;;;;;114.75;46.97;;;6.50;98.50;;;;;;5115081;28;20024;-74
2021/12/14 10:37:11;;;;;;;119.13;50.47;;;6.50;98.70;;;;;;5116456;28;20023;-76
2021/12/14 10:42:40;;;;;;;152.73;63.40;;;6.50;98.60;;;;;;5116009;28;20031;-75
2021/12/14 10:45:05;;;;;;;140.93;55.03;;;6.60;98.30;;;;;;5091589;28;20052;-74
2021/12/14 10:47:34;;;;;;;152.15;63.92;;;6.60;98.20;;;;;;5090063;28;20097;-75
2021/12/14 10:50:04;;;;;;;138.95;57.83;;;6.70;98.10;;;;;;5077084;28;20473;-74
2021/12/14 10:52:31;;;;;;;138.15;56.70;;;6.70;98.40;;;;;;5095471;28;20111;-74
2021/12/14 10:55:21;;;;;;;137.98;58.85;;;6.70;98.50;;;;;;5095523;28;20016;-77
2021/12/14 10:57:47;;;;;;;134.60;58.67;;;6.80;98.40;;;;;;5082788;28;20016;-77
2021/12/14 11:00:30;;;;;;;123.75;55.80;;;6.80;98.40;;;;;;5074475;28;20120;-76
2021/12/14 11:03:02;;;;;;;118.18;56.80;;;6.90;98.10;;;;;;5086104;28;20020;-78
2021/12/14 11:05:30;;;;;;;116.40;53.60;;;7.00;98.10;;;;;;5093126;28;20024;-78
2021/12/14 11:07:57;;;;;;;113.00;51.55;;;7.10;98.50;;;;;;5093911;28;20075;-76
2021/12/14 11:10:47;;;;;;;112.07;49.00;;;7.10;97.90;;;;;;5095247;28;20086;-78
2021/12/14 11:13:14;;;;;;;129.30;53.00;;;7.30;97.20;;;;;;5092925;28;20012;-76
2021/12/14 11:15:44;;;;;;;122.38;49.03;;;7.20;96.90;;;;;;5094594;28;20370;-75
2021/12/14 11:18:15;;;;;;;119.55;51.22;;;7.20;96.80;;;;;;5095002;28;20054;-74
2021/12/14 11:20:48;;;;;;;111.15;47.70;;;7.30;97.00;;;;;;5094648;28;20020;-77
2021/12/14 11:23:26;;;;;;;105.50;45.35;;;7.30;96.80;;;;;;5093974;28;20025;-78
2021/12/14 11:25:51;;;;;;;118.57;46.92;;;7.30;96.60;;;;;;5094560;28;20471;-75
2021/12/14 11:28:30;;;;;;;120.07;49.47;;;7.30;96.70;;;;;;5095020;28;20059;-75
2021/12/14 11:31:13;;;;;;;106.40;47.85;;;7.30;96.70;;;;;;5093613;28;20518;-73
2021/12/14 11:34:01;;;;;;;115.50;48.97;;;7.40;96.70;;;;;;5095090;28;20107;-73
2021/12/14 11:36:31;;;;;;;116.90;48.47;;;7.40;96.90;;;;;;5095032;28;20020;-74
2021/12/14 11:39:09;;;;;;;117.20;47.80;;;7.30;96.20;;;;;;5094741;28;20052;-73
2021/12/14 11:41:50;;;;;;;110.53;47.65;;;7.30;96.60;;;;;;5094409;28;20028;-74
2021/12/14 11:44:54;;;;;;;110.63;47.30;;;7.30;97.00;;;;;;5093738;28;20061;-76
2021/12/14 11:50:16;;;;;;;105.30;46.58;;;7.50;97.40;;;;;;5019974;28;20033;-76
2021/12/14 11:52:53;;;;;;;111.93;47.83;;;7.60;97.70;;;;;;5060721;28;20115;-74
2021/12/14 11:55:37;;;;;;;116.18;46.78;;;7.70;97.00;;;;;;5074480;28;20029;-74
2021/12/14 11:58:20;;;;;;;100.75;47.33;;;7.80;97.20;;;;;;5074091;28;20020;-77
2021/12/14 12:00:52;;;;;;;122.25;49.83;;;7.90;97.30;;;;;;5072992;28;20025;-78
2021/12/14 12:03:23;;;;;;;;;;;8.00;97.00;;;;;;5074543;28;20099;-78
2021/12/14 12:06:02;;;;;;;103.45;43.75;;;8.10;96.50;;;;;;5076447;28;20361;-76
2021/12/14 12:11:16;;;;;;;109.63;46.65;;;8.20;96.30;;;;;;5084372;28;20496;-75
2021/12/14 12:13:43;;;;;;;96.07;45.63;;;8.20;95.70;;;;;;5094235;28;20038;-76
2021/12/14 12:16:20;;;;;;;103.05;46.22;;;8.30;95.90;;;;;;5092275;28;20085;-76
2021/12/14 12:19:09;;;;;;;161.32;52.47;;;8.30;95.80;;;;;;5092987;28;20389;-78
2021/12/14 12:21:36;;;;;;;133.43;51.95;;;8.40;95.20;;;;;;5093802;28;20045;-79
2021/12/14 12:24:02;;;;;;;123.40;48.85;;;8.40;95.30;;;;;;5093879;28;20032;-76
2021/12/14 12:26:30;;;;;;;118.32;49.40;;;8.50;95.10;;;;;;5094015;28;20046;-81
2021/12/14 12:29:02;;;;;;;131.13;52.63;;;8.50;94.60;;;;;;5092573;28;20028;-78
2021/12/14 12:31:32;;;;;;;100.97;45.90;;;8.60;94.40;;;;;;5090482;28;20016;-79
2021/12/14 12:34:00;;;;;;;100.85;47.83;;;8.60;94.70;;;;;;5092276;28;20024;-80
2021/12/14 12:36:32;;;;;;;95.22;45.53;;;8.60;94.80;;;;;;5093985;28;20484;-76
2021/12/14 12:39:25;;;;;;;100.43;44.95;;;8.60;94.90;;;;;;5094047;28;20032;-80
2021/12/14 12:41:59;;;;;;;;;;;8.60;94.70;;;;;;5093991;28;20020;-76
2021/12/14 12:44:39;;;;;;;91.68;43.80;;;8.60;94.90;;;;;;5093592;28;20356;-75
2021/12/14 12:47:20;;;;;;;83.25;42.85;;;8.70;94.80;;;;;;5093437;28;20040;-77
2021/12/14 12:49:55;;;;;;;103.85;43.75;;;8.70;95.10;;;;;;5100244;28;20093;-79
2021/12/14 12:52:30;;;;;;;98.50;43.78;;;8.70;95.20;;;;;;5113913;27;20023;-76
2021/12/14 12:55:14;;;;;;;99.55;39.05;;;8.80;94.50;;;;;;5113495;28;20016;-80
2021/12/14 12:57:56;;;;;;;84.90;38.63;;;8.80;94.40;;;;;;5100380;28;20055;-77
2021/12/14 13:00:37;;;;;;;88.68;41.53;;;8.80;95.00;;;;;;5078044;28;20111;-78
2021/12/14 13:03:24;;;;;;;82.95;39.92;;;8.80;94.80;;;;;;5072692;28;20059;-78
2021/12/14 13:06:10;;;;;;;88.88;42.33;;;8.80;94.90;;;;;;5072847;28;20043;-77
2021/12/14 13:08:43;;;;;;;92.75;39.53;;;8.80;94.90;;;;;;5055410;28;20033;-74
2021/12/14 13:11:15;;;;;;;85.43;40.28;;;8.80;94.90;;;;;;5071714;28;20017;-78
2021/12/14 13:13:41;;;;;;;;;;;8.80;94.70;;;;;;5073298;28;20020;-79
2021/12/14 13:16:49;;;;;;;78.45;37.15;;;8.80;94.30;;;;;;5088228;28;20345;-81
2021/12/14 13:19:23;;;;;;;83.65;39.95;;;8.70;94.20;;;;;;5011138;28;20503;-81
2021/12/14 13:21:57;;;;;;;84.57;39.45;;;8.60;94.30;;;;;;5010971;28;20030;-80
2021/12/14 13:24:26;;;;;;;76.78;39.47;;;8.60;94.60;;;;;;5061403;28;20047;-77
2021/12/14 13:27:10;;;;;;;89.07;42.65;;;8.60;94.70;;;;;;5095308;28;20385;-76
2021/12/14 13:30:01;;;;;;;74.45;37.10;;;8.60;94.80;;;;;;5092136;28;20165;-78
2021/12/14 13:32:35;;;;;;;77.43;36.57;;;8.50;94.90;;;;;;5092859;28;20024;-78
2021/12/14 13:35:11;;;;;;;76.55;37.60;;;8.50;95.40;;;;;;5095148;28;20461;-76
2021/12/14 13:37:45;;;;;;;70.57;32.75;;;8.50;95.80;;;;;;5096617;28;20023;-79
2021/12/14 13:40:21;;;;;;;65.20;31.75;;;8.50;96.00;;;;;;5095977;28;20039;-73
2021/12/14 13:42:54;;;;;;;42.22;23.15;;;8.50;96.30;;;;;;5097713;28;20024;-77
2021/12/14 13:45:26;;;;;;;50.65;26.50;;;8.50;96.40;;;;;;5097853;28;20173;-78
2021/12/14 13:47:53;;;;;;;41.72;21.27;;;8.60;96.20;;;;;;5096991;28;20044;-77